نخجوان, Azerbaijan

02:03 PM +04 on مارس 28, 2017 (GMT +0400)
Nakchivan | | Change Station

Elev 2864 ft 39.19 °N, 45.46 °E | Updated 3 minutes ago

توفان تندرى
توفان تندرى
52 °F
Feels Like 52 °F
N
9
باد متغير باد from SSW

امروز
High -- | Low -- °F
--% Chance of Precip.
دیروز
High -- | Low -- °F
Precip. -- در
فشار 29.89 در
ديد 6.2 مايل، ميل (در برابر كيلومتر
ابری بیشتر ابری 3600 ft
نيم ابرى 8000 ft
قطره شبنم 41 °F
رطوبت 67%
بارش باران 0.00 در
برف عمیق Not available.
6:49 AM 7:18 PM
ماه جدید, 0% visible
METAR UBBN 281000Z 21008KT 9999 -SHRA VCTS BKN036CB OVC080 11/05 Q1012 R14R/290050 NOSIG RMK MT OP QFE684
فشار 29.89 در
ديد 6.2 مايل، ميل (در برابر كيلومتر
ابری بیشتر ابری 3600 ft
نيم ابرى 8000 ft
قطره شبنم 41 °F
رطوبت 67%
بارش باران 0.00 در
برف عمیق Not available.
6:49 AM 7:18 PM
ماه جدید, 0% visible
METAR UBBN 281000Z 21008KT 9999 -SHRA VCTS BKN036CB OVC080 11/05 Q1012 R14R/290050 NOSIG RMK MT OP QFE684

Get Severe Weather Alerts

Thanks for signing up!

Be on the lookout for a verification email in your inbox.

You'll start receiving the daily forecast at 8 AM.

×

10-Day Weather Forecast

No radar image for this location.
×

Almanac

ستاره شناسی

Mar. 28, 2017 Rise Set
وقت حقیقی
تاریک و روشن اجتماعی
تاریک روشن دریایی
شفق و فلق نجومی
ماه
میزان روشنایی روز
طول روز
Tomorrow will be .
, % of the Moon is Illuminated

Today's Extremes

Country Highs Country Lows

Community

WunderPhotos

Upload Photos

1,962,540 photos uploaded!

WunderBlog® & News

Nearby

تمیزی هوا

  تمیزی هوا AQ Index آلاینده
Not available.

عمق برف

Station Depth Elevation

Earthquake Activity

شهر Distance Mag. Time & Date
Minimum magnitude displayed is 2.5.

Earthquake Activity

شهر Distance Mag. Time & Date
Minimum magnitude displayed is 2.5.

Coastal Water Temperatures

منطقه درجه حرارت

Stations

Nearby Weather Stations

Station Location دما باد سرد قطره شبنم رطوبت باد Precip. Elev ارتقا دادن Type